sensor_id;sensor_type;location;lat;lon;timestamp;pressure;altitude;pressure_sealevel;temperature;humidity
59825;BME280;45703;50.898;6.054;2023-07-30T00:01:49;99618.75;;;17.18;86.80
59825;BME280;45703;50.898;6.054;2023-07-30T00:04:14;99612.06;;;17.10;86.85
59825;BME280;45703;50.898;6.054;2023-07-30T00:06:40;99617.44;;;17.10;86.86
59825;BME280;45703;50.898;6.054;2023-07-30T00:09:05;99610.72;;;17.03;87.37
59825;BME280;45703;50.898;6.054;2023-07-30T00:11:31;99623.66;;;17.06;87.35
59825;BME280;45703;50.898;6.054;2023-07-30T00:13:56;99632.28;;;17.08;87.53
59825;BME280;45703;50.898;6.054;2023-07-30T00:16:22;99623.97;;;17.04;88.20
59825;BME280;45703;50.898;6.054;2023-07-30T00:18:47;99619.34;;;17.05;88.32
59825;BME280;45703;50.898;6.054;2023-07-30T00:21:13;99621.00;;;17.01;88.25
59825;BME280;45703;50.898;6.054;2023-07-30T00:23:38;99624.19;;;17.08;87.50
59825;BME280;45703;50.898;6.054;2023-07-30T00:26:03;99625.84;;;17.04;87.86
59825;BME280;45703;50.898;6.054;2023-07-30T00:28:29;99615.59;;;17.01;87.96
59825;BME280;45703;50.898;6.054;2023-07-30T00:30:54;99622.06;;;17.05;88.11
59825;BME280;45703;50.898;6.054;2023-07-30T00:33:19;99628.78;;;17.07;87.68
59825;BME280;45703;50.898;6.054;2023-07-30T00:35:45;99639.28;;;17.14;87.67
59825;BME280;45703;50.898;6.054;2023-07-30T00:38:10;99640.34;;;17.18;87.69
59825;BME280;45703;50.898;6.054;2023-07-30T00:40:41;99639.53;;;17.17;87.19
59825;BME280;45703;50.898;6.054;2023-07-30T00:43:07;99645.72;;;17.23;87.54
59825;BME280;45703;50.898;6.054;2023-07-30T00:45:33;99638.66;;;17.27;87.15
59825;BME280;45703;50.898;6.054;2023-07-30T00:47:59;99623.84;;;17.24;87.37
59825;BME280;45703;50.898;6.054;2023-07-30T00:50:25;99629.75;;;17.26;87.52
59825;BME280;45703;50.898;6.054;2023-07-30T00:52:51;99630.03;;;17.30;87.29
59825;BME280;45703;50.898;6.054;2023-07-30T00:55:16;99633.25;;;17.37;86.92
59825;BME280;45703;50.898;6.054;2023-07-30T00:57:42;99623.28;;;17.37;86.34
59825;BME280;45703;50.898;6.054;2023-07-30T01:00:08;99632.41;;;17.41;86.69
59825;BME280;45703;50.898;6.054;2023-07-30T01:02:37;99644.25;;;17.45;86.38
59825;BME280;45703;50.898;6.054;2023-07-30T01:05:03;99638.00;;;17.49;86.27
59825;BME280;45703;50.898;6.054;2023-07-30T01:07:30;99636.69;;;17.47;86.45
59825;BME280;45703;50.898;6.054;2023-07-30T01:09:55;99641.22;;;17.51;86.30
59825;BME280;45703;50.898;6.054;2023-07-30T01:12:21;99640.13;;;17.52;86.07
59825;BME280;45703;50.898;6.054;2023-07-30T01:14:47;99634.75;;;17.52;85.97
59825;BME280;45703;50.898;6.054;2023-07-30T01:17:13;99635.81;;;17.51;86.06
59825;BME280;45703;50.898;6.054;2023-07-30T01:19:39;99636.31;;;17.58;85.41
59825;BME280;45703;50.898;6.054;2023-07-30T01:22:04;99646.59;;;17.61;84.80
59825;BME280;45703;50.898;6.054;2023-07-30T01:24:29;99648.19;;;17.57;84.83
59825;BME280;45703;50.898;6.054;2023-07-30T01:26:59;99645.50;;;17.57;84.96
59825;BME280;45703;50.898;6.054;2023-07-30T01:29:52;99638.75;;;17.60;84.45
59825;BME280;45703;50.898;6.054;2023-07-30T01:32:20;99654.69;;;17.61;84.91
59825;BME280;45703;50.898;6.054;2023-07-30T01:34:52;99648.19;;;17.57;84.82
59825;BME280;45703;50.898;6.054;2023-07-30T01:37:17;99653.34;;;17.59;84.40
59825;BME280;45703;50.898;6.054;2023-07-30T01:39:44;99653.81;;;17.66;84.47
59825;BME280;45703;50.898;6.054;2023-07-30T01:42:13;99660.06;;;17.61;84.50
59825;BME280;45703;50.898;6.054;2023-07-30T01:44:38;99657.91;;;17.58;84.46
59825;BME280;45703;50.898;6.054;2023-07-30T01:47:04;99664.09;;;17.64;84.56
59825;BME280;45703;50.898;6.054;2023-07-30T01:49:29;99662.22;;;17.64;83.75
59825;BME280;45703;50.898;6.054;2023-07-30T01:51:55;99651.97;;;17.61;84.19
59825;BME280;45703;50.898;6.054;2023-07-30T01:54:20;99659.53;;;17.59;84.47
59825;BME280;45703;50.898;6.054;2023-07-30T01:56:45;99660.66;;;17.53;84.30
59825;BME280;45703;50.898;6.054;2023-07-30T01:59:11;99653.34;;;17.59;83.95
59825;BME280;45703;50.898;6.054;2023-07-30T02:01:36;99655.50;;;17.57;83.73
59825;BME280;45703;50.898;6.054;2023-07-30T02:04:02;99654.47;;;17.53;83.04
59825;BME280;45703;50.898;6.054;2023-07-30T02:06:35;99650.38;;;17.55;83.14
59825;BME280;45703;50.898;6.054;2023-07-30T02:09:19;99668.47;;;17.55;83.23
59825;BME280;45703;50.898;6.054;2023-07-30T02:11:46;99673.03;;;17.59;82.92
59825;BME280;45703;50.898;6.054;2023-07-30T02:14:11;99662.56;;;17.53;81.71
59825;BME280;45703;50.898;6.054;2023-07-30T02:16:37;99671.97;;;17.60;81.63
59825;BME280;45703;50.898;6.054;2023-07-30T02:19:03;99676.28;;;17.61;80.61
59825;BME280;45703;50.898;6.054;2023-07-30T02:21:28;99678.72;;;17.58;80.40
59825;BME280;45703;50.898;6.054;2023-07-30T02:23:57;99685.50;;;17.50;81.34
59825;BME280;45703;50.898;6.054;2023-07-30T02:26:22;99679.59;;;17.43;82.01
59825;BME280;45703;50.898;6.054;2023-07-30T02:28:48;99679.41;;;17.35;81.66
59825;BME280;45703;50.898;6.054;2023-07-30T02:31:13;99679.09;;;17.32;80.98
59825;BME280;45703;50.898;6.054;2023-07-30T02:33:39;99674.34;;;17.14;79.97
59825;BME280;45703;50.898;6.054;2023-07-30T02:36:04;99686.78;;;17.10;79.65
59825;BME280;45703;50.898;6.054;2023-07-30T02:38:29;99669.81;;;16.99;78.76
59825;BME280;45703;50.898;6.054;2023-07-30T02:40:55;99694.34;;;16.98;79.19
59825;BME280;45703;50.898;6.054;2023-07-30T02:43:20;99692.78;;;16.92;79.81
59825;BME280;45703;50.898;6.054;2023-07-30T02:45:49;99685.78;;;16.86;80.17
59825;BME280;45703;50.898;6.054;2023-07-30T02:48:14;99684.19;;;16.80;80.88
59825;BME280;45703;50.898;6.054;2023-07-30T02:50:39;99680.97;;;16.73;81.15
59825;BME280;45703;50.898;6.054;2023-07-30T02:53:05;99680.69;;;16.74;81.41
59825;BME280;45703;50.898;6.054;2023-07-30T02:55:30;99683.09;;;16.81;81.27
59825;BME280;45703;50.898;6.054;2023-07-30T02:57:56;99680.13;;;16.82;81.13
59825;BME280;45703;50.898;6.054;2023-07-30T03:00:21;99677.72;;;16.81;80.61
59825;BME280;45703;50.898;6.054;2023-07-30T03:02:46;99684.19;;;16.80;79.56
59825;BME280;45703;50.898;6.054;2023-07-30T03:05:12;99679.59;;;16.85;78.78
59825;BME280;45703;50.898;6.054;2023-07-30T03:07:37;99679.84;;;16.89;79.44
59825;BME280;45703;50.898;6.054;2023-07-30T03:10:03;99666.94;;;16.81;78.54
59825;BME280;45703;50.898;6.054;2023-07-30T03:12:28;99694.94;;;16.90;76.52
59825;BME280;45703;50.898;6.054;2023-07-30T03:14:54;99670.41;;;16.81;76.41
59825;BME280;45703;50.898;6.054;2023-07-30T03:17:19;99680.69;;;16.84;76.65
59825;BME280;45703;50.898;6.054;2023-07-30T03:19:46;99681.72;;;16.83;75.83
59825;BME280;45703;50.898;6.054;2023-07-30T03:22:11;99685.50;;;16.82;74.47
59825;BME280;45703;50.898;6.054;2023-07-30T03:24:37;99692.53;;;16.78;75.33
59825;BME280;45703;50.898;6.054;2023-07-30T03:27:02;99688.25;;;16.72;75.31
59825;BME280;45703;50.898;6.054;2023-07-30T03:29:28;99703.34;;;16.73;75.52
59825;BME280;45703;50.898;6.054;2023-07-30T03:31:53;99692.56;;;16.73;75.22
59825;BME280;45703;50.898;6.054;2023-07-30T03:34:18;99690.16;;;16.67;75.20
59825;BME280;45703;50.898;6.054;2023-07-30T03:36:44;99696.34;;;16.72;74.68
59825;BME280;45703;50.898;6.054;2023-07-30T03:39:09;99696.63;;;16.71;74.33
59825;BME280;45703;50.898;6.054;2023-07-30T03:41:35;99688.03;;;16.64;74.54
59825;BME280;45703;50.898;6.054;2023-07-30T03:44:01;99706.59;;;16.65;75.68
59825;BME280;45703;50.898;6.054;2023-07-30T03:46:27;99713.91;;;16.60;75.50
59825;BME280;45703;50.898;6.054;2023-07-30T03:48:52;99714.69;;;16.60;75.71
59825;BME280;45703;50.898;6.054;2023-07-30T03:51:18;99724.13;;;16.63;76.13
59825;BME280;45703;50.898;6.054;2023-07-30T03:53:43;99717.69;;;16.59;76.42
59825;BME280;45703;50.898;6.054;2023-07-30T03:56:08;99722.53;;;16.62;76.13
59825;BME280;45703;50.898;6.054;2023-07-30T03:58:34;99724.94;;;16.63;76.00
59825;BME280;45703;50.898;6.054;2023-07-30T04:01:01;99725.22;;;16.67;76.26
59825;BME280;45703;50.898;6.054;2023-07-30T04:03:26;99735.16;;;16.66;76.33
59825;BME280;45703;50.898;6.054;2023-07-30T04:05:52;99737.06;;;16.61;76.95
59825;BME280;45703;50.898;6.054;2023-07-30T04:08:17;99734.09;;;16.62;77.66
59825;BME280;45703;50.898;6.054;2023-07-30T04:10:42;99738.69;;;16.52;78.42
59825;BME280;45703;50.898;6.054;2023-07-30T04:13:08;99731.16;;;16.44;79.40
59825;BME280;45703;50.898;6.054;2023-07-30T04:15:34;99742.47;;;16.41;80.18
59825;BME280;45703;50.898;6.054;2023-07-30T04:17:59;99745.16;;;16.31;81.02
59825;BME280;45703;50.898;6.054;2023-07-30T04:20:24;99736.00;;;16.17;82.02
59825;BME280;45703;50.898;6.054;2023-07-30T04:22:50;99731.66;;;16.01;83.26
59825;BME280;45703;50.898;6.054;2023-07-30T04:25:16;99731.41;;;15.93;84.45
59825;BME280;45703;50.898;6.054;2023-07-30T04:27:41;99740.81;;;15.85;85.14
59825;BME280;45703;50.898;6.054;2023-07-30T04:30:07;99729.75;;;15.77;86.13
59825;BME280;45703;50.898;6.054;2023-07-30T04:32:32;99724.09;;;15.68;86.21
59825;BME280;45703;50.898;6.054;2023-07-30T04:35:00;99719.50;;;15.64;86.45
59825;BME280;45703;50.898;6.054;2023-07-30T04:37:26;99726.78;;;15.58;86.31
59825;BME280;45703;50.898;6.054;2023-07-30T04:39:51;99728.34;;;15.54;87.47
59825;BME280;45703;50.898;6.054;2023-07-30T04:42:17;99732.13;;;15.53;88.00
59825;BME280;45703;50.898;6.054;2023-07-30T04:44:43;99732.09;;;15.48;88.17
59825;BME280;45703;50.898;6.054;2023-07-30T04:47:09;99736.41;;;15.49;88.78
59825;BME280;45703;50.898;6.054;2023-07-30T04:49:34;99734.78;;;15.48;88.42
59825;BME280;45703;50.898;6.054;2023-07-30T04:52:02;99722.41;;;15.42;88.41
59825;BME280;45703;50.898;6.054;2023-07-30T04:54:27;99735.31;;;15.45;88.99
59825;BME280;45703;50.898;6.054;2023-07-30T04:56:53;99729.94;;;15.45;89.37
59825;BME280;45703;50.898;6.054;2023-07-30T04:59:18;99728.88;;;15.46;90.69
59825;BME280;45703;50.898;6.054;2023-07-30T05:01:43;99731.28;;;15.43;90.39
59825;BME280;45703;50.898;6.054;2023-07-30T05:04:09;99736.41;;;15.44;90.71
59825;BME280;45703;50.898;6.054;2023-07-30T05:06:34;99739.91;;;15.45;91.05
59825;BME280;45703;50.898;6.054;2023-07-30T05:08:59;99741.53;;;15.46;90.31
59825;BME280;45703;50.898;6.054;2023-07-30T05:11:25;99742.06;;;15.48;90.96
59825;BME280;45703;50.898;6.054;2023-07-30T05:13:50;99746.09;;;15.50;91.00
59825;BME280;45703;50.898;6.054;2023-07-30T05:16:15;99747.72;;;15.51;91.18
59825;BME280;45703;50.898;6.054;2023-07-30T05:18:41;99750.94;;;15.53;91.08
59825;BME280;45703;50.898;6.054;2023-07-30T05:21:06;99748.00;;;15.55;91.06
59825;BME280;45703;50.898;6.054;2023-07-30T05:23:31;99750.41;;;15.56;91.88
59825;BME280;45703;50.898;6.054;2023-07-30T05:25:57;99753.69;;;15.58;92.44
59825;BME280;45703;50.898;6.054;2023-07-30T05:28:22;99748.28;;;15.58;92.12
59825;BME280;45703;50.898;6.054;2023-07-30T05:30:48;99737.53;;;15.58;92.61
59825;BME280;45703;50.898;6.054;2023-07-30T05:33:13;99741.84;;;15.64;91.88
59825;BME280;45703;50.898;6.054;2023-07-30T05:35:38;99737.78;;;15.62;91.31
59825;BME280;45703;50.898;6.054;2023-07-30T05:38:04;99734.31;;;15.66;91.38
59825;BME280;45703;50.898;6.054;2023-07-30T05:40:29;99742.13;;;15.73;90.79
59825;BME280;45703;50.898;6.054;2023-07-30T05:42:54;99740.25;;;15.73;91.88
59825;BME280;45703;50.898;6.054;2023-07-30T05:45:20;99744.81;;;15.73;91.20
59825;BME280;45703;50.898;6.054;2023-07-30T05:47:45;99750.75;;;15.80;90.74
59825;BME280;45703;50.898;6.054;2023-07-30T05:50:10;99746.19;;;15.80;90.62
59825;BME280;45703;50.898;6.054;2023-07-30T05:52:36;99750.19;;;15.78;91.60
59825;BME280;45703;50.898;6.054;2023-07-30T05:55:01;99744.03;;;15.82;90.75
59825;BME280;45703;50.898;6.054;2023-07-30T05:57:27;99753.72;;;15.88;91.19
59825;BME280;45703;50.898;6.054;2023-07-30T05:59:52;99767.72;;;15.90;90.86
59825;BME280;45703;50.898;6.054;2023-07-30T06:02:17;99766.13;;;15.99;89.86
59825;BME280;45703;50.898;6.054;2023-07-30T06:04:43;99770.19;;;16.01;89.94
59825;BME280;45703;50.898;6.054;2023-07-30T06:07:08;99776.66;;;16.05;90.29
59825;BME280;45703;50.898;6.054;2023-07-30T06:09:34;99774.75;;;16.01;89.42
59825;BME280;45703;50.898;6.054;2023-07-30T06:11:59;99779.06;;;16.07;90.31
59825;BME280;45703;50.898;6.054;2023-07-30T06:14:25;99776.94;;;16.09;89.64
59825;BME280;45703;50.898;6.054;2023-07-30T06:16:52;99783.66;;;16.16;89.81
59825;BME280;45703;50.898;6.054;2023-07-30T06:19:17;99779.09;;;16.17;89.82
59825;BME280;45703;50.898;6.054;2023-07-30T06:21:43;99785.25;;;16.17;90.99
59825;BME280;45703;50.898;6.054;2023-07-30T06:24:09;99789.31;;;16.25;89.90
59825;BME280;45703;50.898;6.054;2023-07-30T06:26:34;99775.31;;;16.28;88.91
59825;BME280;45703;50.898;6.054;2023-07-30T06:29:00;99778.56;;;16.35;88.96
59825;BME280;45703;50.898;6.054;2023-07-30T06:31:25;99765.09;;;16.30;89.24
59825;BME280;45703;50.898;6.054;2023-07-30T06:33:51;99776.97;;;16.34;89.88
59825;BME280;45703;50.898;6.054;2023-07-30T06:36:16;99778.00;;;16.33;89.81
59825;BME280;45703;50.898;6.054;2023-07-30T06:38:41;99776.97;;;16.39;89.90
59825;BME280;45703;50.898;6.054;2023-07-30T06:41:07;99774.00;;;16.45;89.91
59825;BME280;45703;50.898;6.054;2023-07-30T06:43:32;99765.09;;;16.45;89.44
59825;BME280;45703;50.898;6.054;2023-07-30T06:45:58;99775.88;;;16.55;89.21
59825;BME280;45703;50.898;6.054;2023-07-30T06:48:23;99773.72;;;16.57;89.10
59825;BME280;45703;50.898;6.054;2023-07-30T06:50:48;99779.66;;;16.59;89.77
59825;BME280;45703;50.898;6.054;2023-07-30T06:53:14;99773.72;;;16.57;89.58
59825;BME280;45703;50.898;6.054;2023-07-30T06:55:39;99781.28;;;16.60;89.83
59825;BME280;45703;50.898;6.054;2023-07-30T06:58:04;99788.28;;;16.61;89.70
59825;BME280;45703;50.898;6.054;2023-07-30T07:00:30;99792.56;;;16.72;89.07
59825;BME280;45703;50.898;6.054;2023-07-30T07:02:57;99790.69;;;16.67;89.46
59825;BME280;45703;50.898;6.054;2023-07-30T07:05:22;99796.34;;;16.71;88.64
59825;BME280;45703;50.898;6.054;2023-07-30T07:07:47;99799.59;;;16.63;89.57
59825;BME280;45703;50.898;6.054;2023-07-30T07:10:13;99806.06;;;16.67;89.48
59825;BME280;45703;50.898;6.054;2023-07-30T07:12:39;99810.63;;;16.66;89.63
59825;BME280;45703;50.898;6.054;2023-07-30T07:15:05;99817.63;;;16.72;89.47
59825;BME280;45703;50.898;6.054;2023-07-30T07:17:31;99814.94;;;16.72;89.82
59825;BME280;45703;50.898;6.054;2023-07-30T07:19:57;99809.28;;;16.74;89.98
59825;BME280;45703;50.898;6.054;2023-07-30T07:22:22;99810.91;;;16.70;90.06
59825;BME280;45703;50.898;6.054;2023-07-30T07:24:48;99804.16;;;16.72;90.13
59825;BME280;45703;50.898;6.054;2023-07-30T07:27:13;99807.69;;;16.73;90.05
59825;BME280;45703;50.898;6.054;2023-07-30T07:29:39;99806.84;;;16.77;89.41
59825;BME280;45703;50.898;6.054;2023-07-30T07:32:05;99811.97;;;16.84;90.13
59825;BME280;45703;50.898;6.054;2023-07-30T07:34:30;99802.25;;;16.88;89.44
59825;BME280;45703;50.898;6.054;2023-07-30T07:36:56;99809.78;;;16.96;89.13
59825;BME280;45703;50.898;6.054;2023-07-30T07:39:21;99823.25;;;17.01;89.26
59825;BME280;45703;50.898;6.054;2023-07-30T07:41:46;99808.69;;;17.02;88.84
59825;BME280;45703;50.898;6.054;2023-07-30T07:44:12;99812.19;;;17.07;88.66
59825;BME280;45703;50.898;6.054;2023-07-30T07:46:37;99820.00;;;17.09;88.78
59825;BME280;45703;50.898;6.054;2023-07-30T07:49:03;99826.75;;;17.11;88.69
59825;BME280;45703;50.898;6.054;2023-07-30T07:51:28;99828.09;;;17.14;88.68
59825;BME280;45703;50.898;6.054;2023-07-30T07:53:54;99832.94;;;17.17;88.09
59825;BME280;45703;50.898;6.054;2023-07-30T07:56:19;99831.88;;;17.13;88.60
59825;BME280;45703;50.898;6.054;2023-07-30T07:58:45;99829.19;;;17.13;87.87
59825;BME280;45703;50.898;6.054;2023-07-30T08:01:10;99824.34;;;17.15;87.90
59825;BME280;45703;50.898;6.054;2023-07-30T08:03:36;99828.09;;;17.14;88.27
59825;BME280;45703;50.898;6.054;2023-07-30T08:06:01;99827.00;;;17.20;88.37
59825;BME280;45703;50.898;6.054;2023-07-30T08:08:27;99827.25;;;17.23;87.92
59825;BME280;45703;50.898;6.054;2023-07-30T08:10:53;99822.13;;;17.27;88.57
59825;BME280;45703;50.898;6.054;2023-07-30T08:13:18;99816.72;;;17.37;88.19
59825;BME280;45703;50.898;6.054;2023-07-30T08:15:44;99821.53;;;17.49;88.51
59825;BME280;45703;50.898;6.054;2023-07-30T08:18:09;99816.09;;;17.59;88.00
59825;BME280;45703;50.898;6.054;2023-07-30T08:20:34;99806.88;;;17.70;87.41
59825;BME280;45703;50.898;6.054;2023-07-30T08:23:00;99815.16;;;17.84;86.19
59825;BME280;45703;50.898;6.054;2023-07-30T08:25:25;99811.91;;;17.92;84.84
59825;BME280;45703;50.898;6.054;2023-07-30T08:27:50;99819.16;;;17.96;84.98
59825;BME280;45703;50.898;6.054;2023-07-30T08:30:16;99817.84;;;17.94;84.30
59825;BME280;45703;50.898;6.054;2023-07-30T08:32:41;99810.56;;;17.89;83.34
59825;BME280;45703;50.898;6.054;2023-07-30T08:35:09;99819.19;;;17.91;83.42
59825;BME280;45703;50.898;6.054;2023-07-30T08:37:34;99818.38;;;17.91;82.93
59825;BME280;45703;50.898;6.054;2023-07-30T08:40:00;99824.06;;;17.89;82.35
59825;BME280;45703;50.898;6.054;2023-07-30T08:42:25;99808.94;;;17.88;82.53
59825;BME280;45703;50.898;6.054;2023-07-30T08:44:51;99817.06;;;17.83;82.46
59825;BME280;45703;50.898;6.054;2023-07-30T08:47:16;99830.28;;;17.85;82.34
59825;BME280;45703;50.898;6.054;2023-07-30T08:49:42;99814.38;;;17.83;82.14
59825;BME280;45703;50.898;6.054;2023-07-30T08:52:09;99838.09;;;17.91;82.00
59825;BME280;45703;50.898;6.054;2023-07-30T08:54:36;99817.84;;;17.94;81.98
59825;BME280;45703;50.898;6.054;2023-07-30T08:57:02;99812.59;;;18.12;81.52
59825;BME280;45703;50.898;6.054;2023-07-30T08:59:31;99806.59;;;18.20;81.99
59825;BME280;45703;50.898;6.054;2023-07-30T09:01:59;99816.19;;;18.41;81.31
59825;BME280;45703;50.898;6.054;2023-07-30T09:04:28;99807.97;;;18.51;80.57
59825;BME280;45703;50.898;6.054;2023-07-30T09:06:55;99819.22;;;18.68;79.54
59825;BME280;45703;50.898;6.054;2023-07-30T09:09:21;99819.63;;;18.80;78.05
59825;BME280;45703;50.898;6.054;2023-07-30T09:11:52;99825.06;;;18.80;78.36
59825;BME280;45703;50.898;6.054;2023-07-30T09:14:21;99826.16;;;18.79;78.19
59825;BME280;45703;50.898;6.054;2023-07-30T09:16:47;99826.09;;;18.84;77.41
59825;BME280;45703;50.898;6.054;2023-07-30T09:19:18;99821.69;;;18.93;77.81
59825;BME280;45703;50.898;6.054;2023-07-30T09:21:44;99813.75;;;19.01;78.27
59825;BME280;45703;50.898;6.054;2023-07-30T09:24:12;99831.78;;;19.11;76.34
59825;BME280;45703;50.898;6.054;2023-07-30T09:26:48;99825.28;;;19.17;72.99
59825;BME280;45703;50.898;6.054;2023-07-30T09:29:14;99830.09;;;19.20;70.96
59825;BME280;45703;50.898;6.054;2023-07-30T09:31:47;99832.75;;;19.25;72.31
59825;BME280;45703;50.898;6.054;2023-07-30T09:34:17;99831.53;;;19.36;72.28
59825;BME280;45703;50.898;6.054;2023-07-30T09:36:44;99818.91;;;19.50;72.87
59825;BME280;45703;50.898;6.054;2023-07-30T09:39:39;99824.56;;;19.77;74.22
59825;BME280;45703;50.898;6.054;2023-07-30T09:42:08;99832.97;;;19.94;71.32
59825;BME280;45703;50.898;6.054;2023-07-30T09:44:33;99826.16;;;20.01;71.20
59825;BME280;45703;50.898;6.054;2023-07-30T09:47:00;99818.22;;;20.05;70.48
59825;BME280;45703;50.898;6.054;2023-07-30T09:49:30;99813.63;;;20.05;70.59
59825;BME280;45703;50.898;6.054;2023-07-30T09:51:56;99820.84;;;20.10;69.17
59825;BME280;45703;50.898;6.054;2023-07-30T09:54:22;99831.13;;;20.13;68.97
59825;BME280;45703;50.898;6.054;2023-07-30T09:56:48;99829.22;;;20.13;68.76
59825;BME280;45703;50.898;6.054;2023-07-30T09:59:13;99826.09;;;20.25;69.17
59825;BME280;45703;50.898;6.054;2023-07-30T10:01:49;99826.19;;;20.33;69.61
59825;BME280;45703;50.898;6.054;2023-07-30T10:04:15;99832.28;;;20.43;68.42
59825;BME280;45703;50.898;6.054;2023-07-30T10:06:58;99844.97;;;20.48;67.39
59825;BME280;45703;50.898;6.054;2023-07-30T10:09:30;99834.06;;;20.35;65.92
59825;BME280;45703;50.898;6.054;2023-07-30T10:11:58;99831.06;;;20.18;66.69
59825;BME280;45703;50.898;6.054;2023-07-30T10:14:25;99837.72;;;20.07;67.43
59825;BME280;45703;50.898;6.054;2023-07-30T10:16:53;99812.59;;;20.01;68.13
59825;BME280;45703;50.898;6.054;2023-07-30T10:19:23;99838.53;;;20.07;66.83
59825;BME280;45703;50.898;6.054;2023-07-30T10:21:48;99848.94;;;20.19;67.29
59825;BME280;45703;50.898;6.054;2023-07-30T10:24:14;99831.56;;;20.20;66.76
59825;BME280;45703;50.898;6.054;2023-07-30T10:26:39;99829.00;;;20.28;66.74
59825;BME280;45703;50.898;6.054;2023-07-30T10:29:15;99848.47;;;20.30;66.75
59825;BME280;45703;50.898;6.054;2023-07-30T10:31:42;99861.31;;;20.25;65.86
59825;BME280;45703;50.898;6.054;2023-07-30T10:34:08;99849.22;;;20.17;67.12
59825;BME280;45703;50.898;6.054;2023-07-30T10:36:49;99851.94;;;20.17;67.49
59825;BME280;45703;50.898;6.054;2023-07-30T10:39:21;99858.44;;;20.16;67.27
59825;BME280;45703;50.898;6.054;2023-07-30T10:41:52;99857.19;;;20.09;65.14
59825;BME280;45703;50.898;6.054;2023-07-30T10:46:47;99853.06;;;19.93;65.90
59825;BME280;45703;50.898;6.054;2023-07-30T10:49:13;99841.94;;;19.94;66.18
59825;BME280;45703;50.898;6.054;2023-07-30T10:51:38;99852.94;;;20.03;66.24
59825;BME280;45703;50.898;6.054;2023-07-30T10:54:06;99862.53;;;20.14;66.45
59825;BME280;45703;50.898;6.054;2023-07-30T10:56:35;99848.44;;;20.17;66.97
59825;BME280;45703;50.898;6.054;2023-07-30T10:59:03;99862.94;;;20.26;66.23
59825;BME280;45703;50.898;6.054;2023-07-30T11:01:29;99860.28;;;20.21;66.20
59825;BME280;45703;50.898;6.054;2023-07-30T11:03:54;99875.00;;;20.15;65.42
59825;BME280;45703;50.898;6.054;2023-07-30T11:06:24;99871.94;;;19.98;66.69
59825;BME280;45703;50.898;6.054;2023-07-30T11:08:50;99900.78;;;19.89;67.14
59825;BME280;45703;50.898;6.054;2023-07-30T11:11:16;99887.94;;;19.76;67.45
59825;BME280;45703;50.898;6.054;2023-07-30T11:13:46;99881.91;;;19.60;66.69
59825;BME280;45703;50.898;6.054;2023-07-30T11:16:12;99888.69;;;19.58;67.93
59825;BME280;45703;50.898;6.054;2023-07-30T11:18:38;99896.34;;;19.51;69.15
59825;BME280;45703;50.898;6.054;2023-07-30T11:21:09;99891.69;;;19.56;68.25
59825;BME280;45703;50.898;6.054;2023-07-30T11:23:35;99899.19;;;19.64;68.51
59825;BME280;45703;50.898;6.054;2023-07-30T11:26:02;99897.00;;;19.66;68.81
59825;BME280;45703;50.898;6.054;2023-07-30T11:30:59;99893.44;;;19.71;68.42
59825;BME280;45703;50.898;6.054;2023-07-30T11:33:26;99897.75;;;19.72;68.93
59825;BME280;45703;50.898;6.054;2023-07-30T11:35:54;99906.59;;;19.77;69.11
59825;BME280;45703;50.898;6.054;2023-07-30T11:38:20;99895.91;;;19.67;68.42
59825;BME280;45703;50.898;6.054;2023-07-30T11:40:46;99888.47;;;19.54;69.92
59825;BME280;45703;50.898;6.054;2023-07-30T11:43:12;99902.53;;;19.56;71.07
59825;BME280;45703;50.898;6.054;2023-07-30T11:45:38;99905.34;;;19.46;72.21
59825;BME280;45703;50.898;6.054;2023-07-30T11:48:08;99901.75;;;19.51;72.03
59825;BME280;45703;50.898;6.054;2023-07-30T11:50:50;99911.97;;;19.59;71.83
59825;BME280;45703;50.898;6.054;2023-07-30T11:53:16;99924.13;;;19.61;71.32
59825;BME280;45703;50.898;6.054;2023-07-30T11:55:43;99923.31;;;19.61;72.42
59825;BME280;45703;50.898;6.054;2023-07-30T11:58:09;99916.66;;;19.77;73.39
59825;BME280;45703;50.898;6.054;2023-07-30T12:00:39;99907.13;;;20.03;73.10
59825;BME280;45703;50.898;6.054;2023-07-30T12:03:08;99901.09;;;20.29;73.25
59825;BME280;45703;50.898;6.054;2023-07-30T12:05:35;99911.66;;;20.49;72.43
59825;BME280;45703;50.898;6.054;2023-07-30T12:08:02;99907.97;;;20.58;69.94
59825;BME280;45703;50.898;6.054;2023-07-30T12:10:44;99915.41;;;20.53;70.54
59825;BME280;45703;50.898;6.054;2023-07-30T12:13:17;99918.81;;;20.40;69.43
59825;BME280;45703;50.898;6.054;2023-07-30T12:15:55;99935.03;;;20.27;70.93
59825;BME280;45703;50.898;6.054;2023-07-30T12:18:22;99945.94;;;19.98;74.40
59825;BME280;45703;50.898;6.054;2023-07-30T12:20:52;99941.72;;;19.87;75.38
59825;BME280;45703;50.898;6.054;2023-07-30T12:23:19;99942.66;;;19.78;77.36
59825;BME280;45703;50.898;6.054;2023-07-30T12:25:45;99943.69;;;19.82;80.10
59825;BME280;45703;50.898;6.054;2023-07-30T12:28:11;99940.91;;;19.87;79.34
59825;BME280;45703;50.898;6.054;2023-07-30T12:30:36;99940.06;;;19.91;79.27
59825;BME280;45703;50.898;6.054;2023-07-30T12:33:02;99935.38;;;19.97;79.85
59825;BME280;45703;50.898;6.054;2023-07-30T12:35:28;99931.53;;;20.03;78.86
59825;BME280;45703;50.898;6.054;2023-07-30T12:37:54;99927.97;;;20.07;76.29
59825;BME280;45703;50.898;6.054;2023-07-30T12:40:19;99931.91;;;20.15;75.90
59825;BME280;45703;50.898;6.054;2023-07-30T12:42:45;99926.50;;;20.15;74.75
59825;BME280;45703;50.898;6.054;2023-07-30T12:45:10;99918.97;;;20.30;75.03
59825;BME280;45703;50.898;6.054;2023-07-30T12:47:36;99915.31;;;20.40;74.46
59825;BME280;45703;50.898;6.054;2023-07-30T12:50:02;99910.56;;;20.50;73.40
59825;BME280;45703;50.898;6.054;2023-07-30T12:52:28;99919.94;;;20.57;72.71
59825;BME280;45703;50.898;6.054;2023-07-30T12:54:53;99910.78;;;20.53;70.98
59825;BME280;45703;50.898;6.054;2023-07-30T12:57:18;99916.78;;;20.50;69.56
59825;BME280;45703;50.898;6.054;2023-07-30T12:59:44;99910.41;;;20.42;70.86
59825;BME280;45703;50.898;6.054;2023-07-30T13:02:09;99916.84;;;20.45;70.19